Time;durP1;ratioP1;P1;durP2;ratioP2;P2;SDS_P1;SDS_P2;PMS_P1;PMS_P2;Temp;Humidity;BMP_temperature;BMP_pressure;BME280_temperature;BME280_humidity;BME280_pressure;Samples;Min_cycle;Max_cycle;Signal;HPM_P1;HPM_P2
2022/02/17 00:00:48;;;;;;;29.50;14.75;;;;;;;0.46;100.00;94729.28;5048914;28;20495;-46
2022/02/17 00:03:14;;;;;;;37.35;15.35;;;;;;;0.45;100.00;94722.59;5045995;28;20048;-47
2022/02/17 00:05:41;;;;;;;31.10;15.63;;;;;;;0.46;100.00;94719.03;5046733;28;20056;-48
2022/02/17 00:08:08;;;;;;;32.67;14.57;;;;;;;0.43;100.00;94734.75;5045778;28;20059;-45
2022/02/17 00:10:35;;;;;;;31.45;14.52;;;;;;;0.40;100.00;94740.25;5047283;28;20614;-45
2022/02/17 00:13:03;;;;;;;31.33;15.35;;;;;;;0.35;100.00;94742.50;5046676;28;20095;-46
2022/02/17 00:15:32;;;;;;;33.30;13.95;;;;;;;0.29;100.00;94746.53;5045537;28;20045;-46
2022/02/17 00:18:00;;;;;;;29.40;14.07;;;;;;;0.23;100.00;94744.63;5048722;28;20048;-45
2022/02/17 00:20:27;;;;;;;34.35;16.48;;;;;;;0.21;100.00;94750.91;5045505;28;20057;-46
2022/02/17 00:22:54;;;;;;;28.98;13.93;;;;;;;0.11;100.00;94741.69;5045358;28;20141;-46
2022/02/17 00:25:21;;;;;;;36.30;16.90;;;;;;;0.10;100.00;94745.19;5042801;28;20122;-45
2022/02/17 00:27:47;;;;;;;33.60;15.50;;;;;;;0.13;100.00;94749.19;5047528;28;20052;-45
2022/02/17 00:30:16;;;;;;;36.95;15.68;;;;;;;0.14;100.00;94741.31;5043643;28;20064;-47
2022/02/17 00:32:44;;;;;;;30.20;13.35;;;;;;;0.15;100.00;94742.94;5045989;28;20056;-47
2022/02/17 00:35:10;;;;;;;25.92;14.23;;;;;;;0.15;100.00;94726.78;5048095;28;20053;-47
2022/02/17 00:37:37;;;;;;;28.95;13.93;;;;;;;0.02;100.00;94706.84;5046173;28;20067;-46
2022/02/17 00:40:05;;;;;;;32.80;12.63;;;;;;;-0.12;100.00;94699.88;5045877;28;20049;-46
2022/02/17 00:42:32;;;;;;;32.40;12.77;;;;;;;-0.04;100.00;94713.44;5045836;28;20467;-46
2022/02/17 00:44:59;;;;;;;27.17;14.38;;;;;;;-0.04;100.00;94707.50;5045937;28;20128;-46
2022/02/17 00:47:26;;;;;;;22.45;12.40;;;;;;;-0.06;100.00;94712.00;5044401;28;20537;-46
2022/02/17 00:49:53;;;;;;;23.33;12.15;;;;;;;-0.16;100.00;94693.47;5044163;28;20068;-47
2022/02/17 00:52:26;;;;;;;29.33;12.88;;;;;;;-0.07;100.00;94702.72;5045404;28;20073;-46
2022/02/17 00:54:53;;;;;;;25.25;12.32;;;;;;;-0.04;100.00;94712.63;5046333;28;20431;-45
2022/02/17 00:57:20;;;;;;;49.92;16.63;;;;;;;-0.11;100.00;94716.81;5043396;28;20127;-47
2022/02/17 00:59:47;;;;;;;27.85;13.77;;;;;;;-0.06;100.00;94717.09;5055848;28;20142;-45
2022/02/17 01:02:14;;;;;;;28.90;14.15;;;;;;;-0.01;100.00;94714.84;5043810;28;20045;-46
2022/02/17 01:04:41;;;;;;;28.63;12.05;;;;;;;-0.15;100.00;94705.31;5045953;28;20045;-46
2022/02/17 01:07:08;;;;;;;68.88;28.27;;;;;;;-0.24;100.00;94713.03;5045659;28;20564;-47
2022/02/17 01:09:35;;;;;;;68.18;26.25;;;;;;;-0.35;100.00;94689.56;5041710;28;20051;-46
2022/02/17 01:12:03;;;;;;;47.47;21.92;;;;;;;-0.09;100.00;94699.50;5044266;28;20033;-46
2022/02/17 01:14:30;;;;;;;68.13;31.90;;;;;;;-0.23;100.00;94688.25;5044223;28;20053;-45
2022/02/17 01:16:57;;;;;;;128.43;53.00;;;;;;;-0.15;100.00;94700.19;5045599;28;20579;-46
2022/02/17 01:19:25;;;;;;;79.72;30.92;;;;;;;-0.04;100.00;94687.00;5045036;28;20045;-45
2022/02/17 01:21:52;;;;;;;87.88;37.03;;;;;;;-0.02;100.00;94690.19;5044890;28;20045;-47
2022/02/17 01:24:19;;;;;;;96.32;38.17;;;;;;;-0.08;100.00;94685.75;5044664;28;21743;-46
2022/02/17 01:26:48;;;;;;;72.60;30.27;;;;;;;-0.10;100.00;94672.34;5046583;28;20087;-46
2022/02/17 01:29:16;;;;;;;63.65;28.48;;;;;;;-0.16;100.00;94678.13;5043465;28;20053;-49
2022/02/17 01:31:44;;;;;;;68.97;29.73;;;;;;;-0.23;100.00;94673.66;5044316;28;20055;-46
2022/02/17 01:34:15;;;;;;;63.97;26.77;;;;;;;-0.21;100.00;94666.63;5058654;28;20049;-45
2022/02/17 01:36:54;;;;;;;45.25;20.27;;;;;;;-0.31;100.00;94671.13;5044108;28;20095;-46
2022/02/17 01:39:21;;;;;;;44.97;19.05;;;;;;;-0.25;100.00;94670.50;5043466;28;20053;-48
2022/02/17 01:41:48;;;;;;;38.03;15.65;;;;;;;-0.30;100.00;94657.41;5042705;28;20048;-46
2022/02/17 01:44:22;;;;;;;35.92;13.38;;;;;;;-0.27;100.00;94661.38;5045192;28;20049;-47
2022/02/17 01:46:52;;;;;;;31.10;13.18;;;;;;;-0.28;100.00;94660.56;5042300;28;20079;-46
2022/02/17 01:49:19;;;;;;;32.25;13.20;;;;;;;-0.26;100.00;94658.66;5057200;28;20053;-46
2022/02/17 01:51:46;;;;;;;24.50;13.50;;;;;;;-0.20;100.00;94650.31;5057036;28;20060;-47
2022/02/17 01:54:12;;;;;;;26.65;12.70;;;;;;;-0.20;100.00;94658.00;5057148;28;20041;-47
2022/02/17 01:56:41;;;;;;;35.03;17.33;;;;;;;-0.28;100.00;94658.03;5044927;28;20059;-46
2022/02/17 01:59:09;;;;;;;34.85;16.83;;;;;;;-0.30;100.00;94672.75;5043043;28;20124;-50
2022/02/17 02:01:45;;;;;;;39.00;16.33;;;;;;;-0.27;100.00;94662.19;5041208;28;20107;-47
2022/02/17 02:04:11;;;;;;;32.97;15.52;;;;;;;-0.36;100.00;94654.69;5047753;28;20474;-48
2022/02/17 02:06:42;;;;;;;30.58;15.48;;;;;;;-0.38;100.00;94659.97;5044676;28;20044;-46
2022/02/17 02:09:11;;;;;;;29.85;15.75;;;;;;;-0.37;100.00;94655.69;5055188;28;20059;-46
2022/02/17 02:12:01;;;;;;;25.33;11.68;;;;;;;-0.51;100.00;94654.63;5045696;28;20057;-46
2022/02/17 02:14:28;;;;;;;37.25;15.88;;;;;;;-0.52;100.00;94660.69;5044264;28;20074;-46
2022/02/17 02:16:56;;;;;;;39.53;16.98;;;;;;;-0.59;100.00;94647.78;5044601;28;20140;-45
2022/02/17 02:19:23;;;;;;;34.63;15.35;;;;;;;-0.68;100.00;94638.53;5042938;28;20832;-46
2022/02/17 02:21:57;;;;;;;29.55;14.50;;;;;;;-0.67;100.00;94653.69;5043332;28;20040;-45
2022/02/17 02:24:24;;;;;;;33.45;15.65;;;;;;;-0.70;100.00;94651.50;5043517;28;20132;-47
2022/02/17 02:26:51;;;;;;;33.15;14.38;;;;;;;-0.74;100.00;94650.22;5048484;28;20051;-46
2022/02/17 02:29:27;;;;;;;33.22;12.85;;;;;;;-0.74;100.00;94650.22;5044443;28;20738;-47
2022/02/17 02:31:54;;;;;;;31.48;13.55;;;;;;;-0.80;100.00;94650.88;5042706;28;20495;-47
2022/02/17 02:34:21;;;;;;;33.88;14.75;;;;;;;-0.81;100.00;94654.38;5044002;28;20130;-46
2022/02/17 02:36:50;;;;;;;27.08;13.70;;;;;;;-0.79;100.00;94647.38;5045783;28;20057;-46
2022/02/17 02:39:17;;;;;;;29.30;12.57;;;;;;;-0.81;100.00;94644.16;5044783;28;20057;-47
2022/02/17 02:41:52;;;;;;;24.27;11.63;;;;;;;-0.83;100.00;94635.84;5046018;28;20070;-45
2022/02/17 02:44:19;;;;;;;25.88;12.13;;;;;;;-0.86;100.00;94649.00;5043000;28;20056;-46
2022/02/17 02:46:52;;;;;;;25.35;12.70;;;;;;;-0.82;100.00;94650.25;5043263;28;20060;-45
2022/02/17 02:49:19;;;;;;;30.27;11.10;;;;;;;-0.81;100.00;94641.59;5042853;28;20061;-45
2022/02/17 02:51:46;;;;;;;24.60;10.90;;;;;;;-0.83;100.00;94651.19;5052805;28;20051;-47
2022/02/17 02:54:14;;;;;;;22.40;11.45;;;;;;;-0.92;100.00;94657.31;5047157;28;20049;-47
2022/02/17 02:56:43;;;;;;;30.05;14.65;;;;;;;-0.96;100.00;94662.72;5056463;28;20052;-46
2022/02/17 02:59:10;;;;;;;37.97;13.77;;;;;;;-0.96;100.00;94651.72;5046545;28;20052;-46
2022/02/17 03:01:38;;;;;;;69.07;24.52;;;;;;;-0.93;100.00;94650.63;5049282;28;20049;-46
2022/02/17 03:04:05;;;;;;;52.05;23.40;;;;;;;-0.94;100.00;94649.00;5044786;28;20041;-48
2022/02/17 03:06:32;;;;;;;42.67;17.83;;;;;;;-0.90;100.00;94650.25;5059474;28;20040;-48
2022/02/17 03:08:59;;;;;;;33.70;15.63;;;;;;;-0.92;100.00;94657.31;5047054;28;20453;-46
2022/02/17 03:11:30;;;;;;;24.05;12.20;;;;;;;-0.96;100.00;94662.72;5044708;28;20051;-46
2022/02/17 03:13:57;;;;;;;25.65;12.82;;;;;;;-1.02;100.00;94662.63;5047541;28;21747;-46
2022/02/17 03:16:27;;;;;;;24.25;11.35;;;;;;;-1.15;100.00;94655.44;5051353;28;20055;-46
2022/02/17 03:18:55;;;;;;;29.30;12.10;;;;;;;-1.31;100.00;94642.72;5044961;28;20045;-46
2022/02/17 03:21:22;;;;;;;26.80;14.00;;;;;;;-1.35;100.00;94637.91;5046304;28;20102;-48
2022/02/17 03:23:51;;;;;;;28.65;14.10;;;;;;;-1.35;100.00;94643.03;5046739;28;20564;-47
2022/02/17 03:26:20;;;;;;;36.28;16.38;;;;;;;-1.41;100.00;94648.75;5046471;28;20057;-48
2022/02/17 03:28:54;;;;;;;26.17;14.27;;;;;;;-1.35;100.00;94643.03;5049434;28;20057;-47
2022/02/17 03:31:21;;;;;;;29.77;13.52;;;;;;;-1.36;100.00;94648.28;5061454;28;20049;-46
2022/02/17 03:34:04;;;;;;;29.58;12.35;;;;;;;-1.38;100.00;94651.00;5061566;28;20052;-46
2022/02/17 03:36:33;;;;;;;26.48;12.85;;;;;;;-1.33;100.00;94644.59;5045974;28;20049;-46
2022/02/17 03:39:00;;;;;;;34.53;15.75;;;;;;;-1.45;100.00;94627.06;5045438;28;20041;-46
2022/02/17 03:41:55;;;;;;;46.63;19.77;;;;;;;-1.40;100.00;94636.81;5045504;28;20148;-45
2022/02/17 03:44:26;;;;;;;31.73;15.52;;;;;;;-1.47;100.00;94623.88;5045410;28;20052;-47
2022/02/17 03:47:04;;;;;;;30.63;14.68;;;;;;;-1.35;100.00;94637.91;5045345;28;20055;-48
2022/02/17 03:49:50;;;;;;;21.40;11.90;;;;;;;-1.37;100.00;94629.63;5045440;28;20045;-47
2022/02/17 03:52:17;;;;;;;23.27;11.48;;;;;;;-1.40;100.00;94624.81;5045246;28;20045;-47
2022/02/17 03:54:58;;;;;;;20.08;10.65;;;;;;;-1.35;100.00;94627.69;5050219;28;20056;-46
2022/02/17 03:57:26;;;;;;;26.45;13.38;;;;;;;-1.38;100.00;94630.56;5048420;28;20053;-46
2022/02/17 03:59:59;;;;;;;28.38;12.13;;;;;;;-1.37;100.00;94632.16;5044679;28;20060;-48
2022/02/17 04:02:26;;;;;;;28.23;11.52;;;;;;;-1.42;100.00;94620.84;5044454;28;20037;-46
2022/02/17 04:04:53;;;;;;;30.35;12.38;;;;;;;-1.52;100.00;94633.75;5060012;28;20044;-47
2022/02/17 04:07:19;;;;;;;26.85;12.02;;;;;;;-1.56;100.00;94640.16;5047694;28;20515;-47
2022/02/17 04:09:48;;;;;;;30.92;13.48;;;;;;;-1.60;100.00;94644.00;5043452;28;20056;-47
2022/02/17 04:12:16;;;;;;;46.25;21.02;;;;;;;-1.59;100.00;94653.25;5048201;28;20037;-46
2022/02/17 04:14:43;;;;;;;36.47;17.90;;;;;;;-1.59;100.00;94640.47;5060731;28;20090;-47
2022/02/17 04:17:12;;;;;;;39.30;17.02;;;;;;;-1.44;100.00;94654.22;5043738;28;20160;-47
2022/02/17 04:19:56;;;;;;;30.17;13.15;;;;;;;-1.38;100.00;94653.56;5043693;28;20769;-47
2022/02/17 04:22:35;;;;;;;25.25;10.77;;;;;;;-1.43;100.00;94643.00;5043412;28;20098;-45
2022/02/17 04:25:17;;;;;;;20.42;9.98;;;;;;;-1.53;100.00;94650.06;5060665;28;20068;-46
2022/02/17 04:27:44;;;;;;;23.83;10.90;;;;;;;-1.58;100.00;94636.97;5044282;28;20044;-45
2022/02/17 04:30:11;;;;;;;26.98;10.77;;;;;;;-1.53;100.00;94644.97;5042796;28;20143;-47
2022/02/17 04:32:38;;;;;;;32.22;14.95;;;;;;;-1.60;100.00;94639.69;5043259;28;20052;-52
2022/02/17 04:35:13;;;;;;;25.63;12.02;;;;;;;-1.60;100.00;94634.56;5042361;28;20553;-46
2022/02/17 04:37:40;;;;;;;29.73;12.95;;;;;;;-1.60;100.00;94638.91;5042761;28;20083;-47
2022/02/17 04:40:08;;;;;;;48.55;21.13;;;;;;;-1.51;100.00;94625.16;5043987;28;20080;-47
2022/02/17 04:42:45;;;;;;;48.78;19.83;;;;;;;-1.53;100.00;94621.97;5048866;28;20044;-46
2022/02/17 04:45:13;;;;;;;37.28;16.80;;;;;;;-1.54;100.00;94635.69;5045384;28;20052;-46
2022/02/17 04:47:41;;;;;;;42.88;20.90;;;;;;;-1.55;100.00;94640.00;5043940;28;20041;-46
2022/02/17 04:50:10;;;;;;;46.30;21.73;;;;;;;-1.44;100.00;94638.88;5049031;28;20105;-46
2022/02/17 04:52:38;;;;;;;52.30;23.15;;;;;;;-1.45;100.00;94639.03;5044669;28;20128;-47
2022/02/17 04:55:06;;;;;;;55.05;22.23;;;;;;;-1.40;100.00;94629.94;5044808;28;20135;-47
2022/02/17 04:57:32;;;;;;;65.40;25.40;;;;;;;-1.41;100.00;94633.44;5046013;28;20111;-48
2022/02/17 04:59:59;;;;;;;73.57;30.83;;;;;;;-1.36;100.00;94630.41;5063732;28;20410;-47
2022/02/17 05:02:26;;;;;;;85.68;35.20;;;;;;;-1.42;100.00;94619.06;5043549;28;20505;-46
2022/02/17 05:05:04;;;;;;;48.33;21.60;;;;;;;-1.50;100.00;94634.41;5049921;28;20052;-47
2022/02/17 05:07:31;;;;;;;51.10;25.23;;;;;;;-1.65;100.00;94615.59;5049063;28;20516;-48
2022/02/17 05:09:58;;;;;;;36.65;17.13;;;;;;;-1.65;100.00;94638.56;5026774;28;20513;-46
2022/02/17 05:12:38;;;;;;;31.55;14.32;;;;;;;-1.70;100.00;94635.69;5042494;28;20053;-46
2022/02/17 05:15:05;;;;;;;38.22;15.23;;;;;;;-1.75;100.00;94629.31;5045627;28;20049;-46
2022/02/17 05:17:33;;;;;;;34.28;16.55;;;;;;;-1.81;100.00;94617.19;5053464;28;20052;-47
2022/02/17 05:20:02;;;;;;;36.05;19.45;;;;;;;-1.76;100.00;94624.38;5047255;28;20132;-46
2022/02/17 05:22:40;;;;;;;36.15;15.57;;;;;;;-1.76;100.00;94629.47;5042122;28;20037;-52
2022/02/17 05:25:39;;;;;;;31.10;15.35;;;;;;;-1.81;100.00;94617.19;5042574;28;20049;-46
2022/02/17 05:28:24;;;;;;;32.22;14.75;;;;;;;-1.81;100.00;94612.06;5042910;28;20048;-46
2022/02/17 05:31:10;;;;;;;31.73;14.50;;;;;;;-1.82;100.00;94614.78;5043857;28;20056;-48
2022/02/17 05:33:57;;;;;;;34.92;14.20;;;;;;;-1.76;100.00;94617.50;5039775;28;20053;-48
2022/02/17 05:37:01;;;;;;;30.73;13.80;;;;;;;-1.66;100.00;94609.66;5050130;28;20526;-46
2022/02/17 05:39:48;;;;;;;31.58;15.18;;;;;;;-1.62;100.00;94605.84;5022880;28;20053;-47
2022/02/17 05:42:17;;;;;;;33.92;17.92;;;;;;;-1.58;100.00;94601.22;5045580;28;20131;-46
2022/02/17 05:44:44;;;;;;;33.17;16.02;;;;;;;-1.60;100.00;94603.13;5044241;28;20052;-47
2022/02/17 05:47:10;;;;;;;37.35;16.70;;;;;;;-1.56;100.00;94614.63;5044063;28;20041;-47
2022/02/17 05:49:37;;;;;;;38.13;16.20;;;;;;;-1.48;100.00;94612.03;5045176;28;20047;-48
2022/02/17 05:52:04;;;;;;;33.65;15.50;;;;;;;-1.40;100.00;94604.38;5047846;28;20041;-47
2022/02/17 05:54:31;;;;;;;33.85;15.88;;;;;;;-1.33;100.00;94596.06;5043154;28;20506;-47
2022/02/17 05:56:58;;;;;;;43.83;16.92;;;;;;;-1.24;100.00;94601.00;5044156;28;20041;-46
2022/02/17 05:59:25;;;;;;;39.38;16.98;;;;;;;-1.15;100.00;94617.13;5043938;28;20049;-47
2022/02/17 06:01:51;;;;;;;49.65;22.40;;;;;;;-1.04;100.00;94619.31;5045562;28;20045;-46
2022/02/17 06:04:18;;;;;;;56.33;20.27;;;;;;;-0.92;100.00;94611.28;5042985;28;20403;-46
2022/02/17 06:06:45;;;;;;;36.30;17.35;;;;;;;-0.82;100.00;94617.00;5042486;28;20461;-47
2022/02/17 06:09:12;;;;;;;32.95;16.52;;;;;;;-0.76;100.00;94621.44;5046087;28;20040;-47
2022/02/17 06:11:39;;;;;;;44.63;19.98;;;;;;;-0.72;100.00;94622.72;5046407;28;20080;-48
2022/02/17 06:14:09;;;;;;;42.30;19.95;;;;;;;-0.57;100.00;94599.78;5045902;28;20068;-46
2022/02/17 06:16:35;;;;;;;37.88;18.48;;;;;;;-0.37;100.00;94605.28;5043175;28;20469;-47
2022/02/17 06:19:02;;;;;;;38.58;18.98;;;;;;;-0.20;100.00;94621.34;5046684;28;20469;-52
2022/02/17 06:21:29;;;;;;;39.47;19.48;;;;;;;-0.07;100.00;94615.69;5042907;28;20113;-47
2022/02/17 06:23:55;;;;;;;37.78;20.33;;;;;;;0.07;100.00;94609.78;5044004;28;20065;-49
2022/02/17 06:26:22;;;;;;;38.17;18.55;;;;;;;0.21;100.00;94612.59;5047850;28;20107;-47
2022/02/17 06:28:49;;;;;;;47.17;23.25;;;;;;;0.37;100.00;94618.38;5047426;28;20049;-47
2022/02/17 06:31:18;;;;;;;63.50;27.98;;;;;;;0.55;100.00;94628.31;5051855;28;20118;-47
2022/02/17 06:33:44;;;;;;;88.63;36.13;;;;;;;0.75;100.00;94630.38;5047654;28;20088;-46
2022/02/17 06:36:17;;;;;;;65.13;32.00;;;;;;;0.94;100.00;94635.00;5048917;28;20060;-50
2022/02/17 06:38:43;;;;;;;72.43;33.65;;;;;;;1.10;100.00;94644.31;5049221;28;20499;-47
2022/02/17 06:41:12;;;;;;;88.57;38.45;;;;;;;1.20;100.00;94644.03;5053084;28;20111;-48
2022/02/17 06:43:38;;;;;;;89.28;32.45;;;;;;;1.31;100.00;94645.34;5047896;28;20037;-46
2022/02/17 06:46:06;;;;;;;63.25;26.80;;;;;;;1.47;100.00;94664.91;5047590;28;20103;-47
2022/02/17 06:48:32;;;;;;;58.75;26.33;;;;;;;1.61;100.00;94658.97;5047531;28;20453;-52
2022/02/17 06:51:01;;;;;;;62.50;28.67;;;;;;;1.70;100.00;94657.88;5047697;28;20529;-47
2022/02/17 06:53:28;;;;;;;62.67;29.02;;;;;;;1.62;100.00;94632.34;5046800;28;21812;-48
2022/02/17 06:55:55;;;;;;;50.00;25.08;;;;;;;1.82;100.00;94642.00;5048571;28;20123;-47
2022/02/17 06:58:21;;;;;;;50.97;22.25;;;;;;;1.74;100.00;94665.25;5048527;28;20134;-47
2022/02/17 07:00:49;;;;;;;51.45;21.80;;;;;;;1.66;100.00;94658.44;5046614;28;20064;-48
2022/02/17 07:03:16;;;;;;;35.58;18.15;;;;;;;1.80;100.00;94639.66;5048452;28;20118;-48
2022/02/17 07:05:42;;;;;;;44.30;23.13;;;;;;;1.92;100.00;94632.25;5047277;28;20041;-46
2022/02/17 07:08:10;;;;;;;47.38;19.90;;;;;;;1.69;100.00;94571.59;5048654;28;20095;-47
2022/02/17 07:10:54;;;;;;;35.35;17.23;;;;;;;2.26;100.00;94638.50;5046919;28;20110;-46
2022/02/17 07:13:28;;;;;;;39.65;19.67;;;;;;;2.35;100.00;94628.91;5047038;28;20045;-46
2022/02/17 07:15:55;;;;;;;46.00;21.23;;;;;;;2.44;100.00;94631.16;5046615;28;20634;-47
2022/02/17 07:18:27;;;;;;;57.40;21.73;;;;;;;2.56;100.00;94630.66;5046319;28;20036;-47
2022/02/17 07:20:54;;;;;;;61.50;24.90;;;;;;;2.70;100.00;94640.03;5047821;28;20078;-47
2022/02/17 07:23:26;;;;;;;39.15;18.60;;;;;;;2.80;100.00;94614.81;5047162;28;20045;-47
2022/02/17 07:25:54;;;;;;;39.22;16.98;;;;;;;2.89;100.00;94624.97;5047284;28;20059;-46
2022/02/17 07:28:22;;;;;;;32.28;15.77;;;;;;;2.93;100.00;94628.75;5046528;28;20504;-47
2022/02/17 07:30:49;;;;;;;37.67;17.33;;;;;;;3.01;100.00;94620.91;5045436;28;20041;-48
2022/02/17 07:33:18;;;;;;;65.55;23.13;;;;;;;2.98;100.00;94616.91;5045141;28;20550;-47
2022/02/17 07:35:45;;;;;;;50.95;22.95;;;;;;;3.13;100.00;94614.22;5044677;28;20048;-46
2022/02/17 07:38:33;;;;;;;35.72;19.10;;;;;;;3.12;100.00;94607.50;5046750;28;20045;-47
2022/02/17 07:40:59;;;;;;;41.30;20.80;;;;;;;3.15;100.00;94607.13;5044288;28;20041;-46
2022/02/17 07:43:27;;;;;;;45.28;23.83;;;;;;;3.27;100.00;94604.00;5048232;28;20044;-46
2022/02/17 07:45:57;;;;;;;43.00;21.10;;;;;;;3.34;100.00;94594.53;5044292;28;20510;-47
2022/02/17 07:48:23;;;;;;;36.78;16.33;;;;;;;3.49;100.00;94602.91;5044567;28;20546;-46
2022/02/17 07:50:50;;;;;;;52.03;18.70;;;;;;;3.58;100.00;94585.50;5046180;28;20560;-50
2022/02/17 07:53:17;;;;;;;42.60;22.13;;;;;;;3.69;100.00;94591.88;5047829;28;20049;-49
2022/02/17 07:55:44;;;;;;;49.90;20.13;;;;;;;3.84;100.00;94577.06;5049656;28;20040;-48
2022/02/17 07:58:15;;;;;;;43.05;20.15;;;;;;;3.94;100.00;94579.25;5046265;28;20494;-49
2022/02/17 08:00:42;;;;;;;41.78;17.60;;;;;;;4.04;100.00;94568.59;5044681;28;20064;-49
2022/02/17 08:03:10;;;;;;;39.08;17.88;;;;;;;4.19;100.00;94566.59;5045955;28;20073;-46
2022/02/17 08:05:38;;;;;;;42.25;18.20;;;;;;;4.38;100.00;94565.03;5047183;28;20048;-46
2022/02/17 08:08:06;;;;;;;34.22;17.05;;;;;;;4.50;100.00;94552.31;5045313;28;20056;-47
2022/02/17 08:10:35;;;;;;;49.92;20.48;;;;;;;4.63;100.00;94552.31;5044196;28;20048;-47
2022/02/17 08:13:05;;;;;;;35.15;18.90;;;;;;;4.84;100.00;94537.59;5044286;28;20430;-46
2022/02/17 08:15:33;;;;;;;37.40;17.35;;;;;;;4.87;100.00;94535.41;5045435;28;20053;-46
2022/02/17 08:18:00;;;;;;;38.33;18.98;;;;;;;4.91;100.00;94543.53;5044713;28;20044;-47
2022/02/17 08:20:27;;;;;;;39.45;17.65;;;;;;;5.00;100.00;94547.47;5043119;28;20044;-53
2022/02/17 08:22:56;;;;;;;42.88;17.30;;;;;;;5.24;100.00;94540.88;5041838;28;20482;-47
2022/02/17 08:25:25;;;;;;;41.53;18.88;;;;;;;5.43;100.00;94531.44;5042883;28;20041;-46
2022/02/17 08:27:52;;;;;;;35.50;17.23;;;;;;;5.53;100.00;94529.22;5043941;28;20041;-50
2022/02/17 08:30:22;;;;;;;38.47;17.30;;;;;;;5.78;100.00;94528.50;5041048;28;20502;-51
2022/02/17 08:32:55;;;;;;;38.70;17.63;;;;;;;5.91;100.00;94518.06;5043105;28;20099;-47
2022/02/17 08:35:23;;;;;;;36.53;17.73;;;;;;;6.09;100.00;94524.34;5046381;28;20824;-47
2022/02/17 08:37:50;;;;;;;41.38;19.33;;;;;;;6.25;97.83;94523.81;5044688;28;20454;-47
2022/02/17 08:40:16;;;;;;;38.80;19.55;;;;;;;6.49;98.37;94518.84;5044274;28;20083;-46
2022/02/17 08:42:43;;;;;;;35.95;17.50;;;;;;;6.69;97.75;94519.44;5047355;28;20114;-47
2022/02/17 08:45:10;;;;;;;32.28;15.73;;;;;;;6.88;97.64;94514.31;5045902;28;20053;-46
2022/02/17 08:47:37;;;;;;;37.30;17.20;;;;;;;7.06;96.81;94508.34;5046359;28;20751;-50
2022/02/17 08:50:06;;;;;;;32.83;14.98;;;;;;;7.13;95.41;94503.06;5046938;28;20099;-46
2022/02/17 08:52:33;;;;;;;40.00;19.17;;;;;;;7.33;96.04;94498.44;5044030;28;20126;-46
2022/02/17 08:55:00;;;;;;;31.70;13.98;;;;;;;7.44;93.78;94500.31;5047687;28;20049;-48
2022/02/17 08:57:28;;;;;;;32.67;16.45;;;;;;;7.58;93.47;94494.94;5044341;28;20119;-47
2022/02/17 08:59:55;;;;;;;23.23;12.55;;;;;;;7.66;92.29;94492.03;5043146;28;20126;-46
2022/02/17 09:02:22;;;;;;;40.47;17.95;;;;;;;7.89;92.53;94482.75;5043878;28;20482;-48
2022/02/17 09:04:49;;;;;;;35.78;15.52;;;;;;;8.08;91.06;94478.28;5043820;28;20496;-48
2022/02/17 09:07:16;;;;;;;30.83;14.55;;;;;;;8.27;88.75;94473.78;5045358;28;20053;-47
2022/02/17 09:09:43;;;;;;;31.70;12.73;;;;;;;8.53;89.31;94481.13;5044335;28;20434;-46
2022/02/17 09:12:10;;;;;;;23.90;12.32;;;;;;;8.68;88.11;94482.50;5044918;28;20152;-47
2022/02/17 09:14:39;;;;;;;24.40;12.07;;;;;;;8.88;87.18;94477.75;5044825;28;20045;-47
2022/02/17 09:17:06;;;;;;;21.08;12.13;;;;;;;8.96;84.83;94474.78;5044406;28;20044;-46
2022/02/17 09:19:34;;;;;;;29.67;12.48;;;;;;;9.08;83.24;94481.78;5045400;28;20041;-46
2022/02/17 09:22:01;;;;;;;20.67;11.88;;;;;;;9.20;84.66;94479.94;5044856;28;20107;-47
2022/02/17 09:24:28;;;;;;;24.83;12.60;;;;;;;9.42;83.85;94472.28;5044662;28;20048;-46
2022/02/17 09:26:56;;;;;;;23.63;11.43;;;;;;;9.32;82.94;94467.69;5044737;28;20127;-50
2022/02/17 09:29:23;;;;;;;30.05;16.42;;;;;;;9.44;83.06;94474.66;5044165;28;20037;-49
2022/02/17 09:32:11;;;;;;;34.10;16.58;;;;;;;9.61;83.73;94461.69;5043534;28;20462;-52
2022/02/17 09:34:38;;;;;;;18.83;9.82;;;;;;;9.51;82.05;94470.13;5044022;28;20033;-48
2022/02/17 09:37:04;;;;;;;26.95;12.50;;;;;;;9.26;83.08;94470.44;5047913;28;20052;-50
2022/02/17 09:39:33;;;;;;;22.13;11.27;;;;;;;9.46;82.76;94462.22;5048237;28;20128;-49
2022/02/17 09:42:04;;;;;;;27.48;13.38;;;;;;;9.71;83.11;94475.66;5048687;28;20045;-48
2022/02/17 09:44:35;;;;;;;23.30;12.18;;;;;;;9.93;81.97;94472.38;5041183;28;20049;-48
2022/02/17 09:47:04;;;;;;;22.98;12.18;;;;;;;10.04;80.54;94462.94;5043821;28;20510;-47
2022/02/17 09:49:33;;;;;;;27.48;12.80;;;;;;;9.97;80.13;94463.09;5044723;28;20521;-46
2022/02/17 09:52:00;;;;;;;23.92;13.00;;;;;;;10.10;80.35;94461.97;5043937;28;20707;-49
2022/02/17 09:54:28;;;;;;;22.38;10.63;;;;;;;10.19;79.73;94464.97;5045961;28;20182;-47
2022/02/17 09:56:56;;;;;;;27.25;12.82;;;;;;;10.25;80.46;94453.63;5042250;28;20155;-51
2022/02/17 09:59:24;;;;;;;17.92;9.68;;;;;;;10.51;79.38;94453.03;5044267;28;20044;-47
2022/02/17 10:02:03;;;;;;;24.65;11.20;;;;;;;10.51;78.76;94447.81;5046504;28;20059;-50
2022/02/17 10:04:33;;;;;;;28.08;11.48;;;;;;;10.43;78.83;94440.41;5054056;28;20560;-47
2022/02/17 10:07:07;;;;;;;21.70;11.07;;;;;;;10.57;79.04;94435.66;5048344;28;20132;-47
2022/02/17 10:09:40;;;;;;;19.90;10.43;;;;;;;10.72;78.20;94437.66;5049898;28;20491;-49
2022/02/17 10:12:10;;;;;;;21.73;10.93;;;;;;;10.82;77.69;94432.59;5051233;28;20068;-48
2022/02/17 10:14:43;;;;;;;23.35;10.75;;;;;;;10.83;77.40;94428.94;5053791;28;20127;-49
2022/02/17 10:17:14;;;;;;;23.60;11.60;;;;;;;10.79;77.94;94427.06;5049486;28;20037;-47
2022/02/17 10:19:47;;;;;;;22.45;11.80;;;;;;;10.97;77.49;94433.81;5050472;28;20049;-50
2022/02/17 10:22:17;;;;;;;25.60;12.82;;;;;;;11.02;77.30;94432.03;5045480;28;20056;-47
2022/02/17 10:24:48;;;;;;;28.73;14.15;;;;;;;10.97;77.13;94412.97;5047796;28;20037;-49
2022/02/17 10:27:23;;;;;;;25.17;12.20;;;;;;;11.03;76.69;94412.75;5048117;28;20055;-46
2022/02/17 10:30:09;;;;;;;25.15;12.60;;;;;;;11.34;76.96;94399.25;5049598;28;20045;-47
2022/02/17 10:32:55;;;;;;;22.20;12.68;;;;;;;11.61;75.66;94402.66;5050451;28;20541;-49
2022/02/17 10:35:23;;;;;;;25.40;12.45;;;;;;;11.75;73.66;94407.47;5048157;28;20501;-48
2022/02/17 10:37:57;;;;;;;31.20;14.05;;;;;;;11.68;72.59;94397.22;5049049;28;20053;-48
2022/02/17 10:40:25;;;;;;;23.02;12.60;;;;;;;11.79;69.33;94393.69;5052977;28;20055;-47
2022/02/17 10:43:05;;;;;;;27.48;11.77;;;;;;;11.99;69.33;94392.28;5054741;28;20060;-50
2022/02/17 10:45:42;;;;;;;24.98;12.10;;;;;;;12.12;66.35;94398.91;5052257;28;20049;-49
2022/02/17 10:48:22;;;;;;;31.65;13.40;;;;;;;12.12;66.12;94397.09;5050317;28;20049;-48
2022/02/17 10:51:01;;;;;;;23.67;12.48;;;;;;;12.24;65.31;94373.41;5048603;28;20045;-50
2022/02/17 10:53:30;;;;;;;21.80;11.35;;;;;;;12.16;65.60;94363.44;5049198;28;20045;-47
2022/02/17 10:56:00;;;;;;;28.15;13.52;;;;;;;12.14;65.77;94362.91;5049170;28;20045;-49
2022/02/17 10:58:32;;;;;;;34.83;13.68;;;;;;;11.95;65.72;94358.06;5052683;28;20044;-51
2022/02/17 11:01:06;;;;;;;28.70;13.43;;;;;;;12.19;65.73;94355.09;5049513;28;20076;-46
2022/02/17 11:03:37;;;;;;;31.17;14.05;;;;;;;12.31;65.13;94350.47;5056203;28;20726;-46
2022/02/17 11:06:10;;;;;;;32.50;14.20;;;;;;;12.67;64.56;94339.41;5052392;28;20047;-47
2022/02/17 11:08:38;;;;;;;24.58;13.27;;;;;;;12.63;62.67;94333.91;5052135;28;20045;-48
2022/02/17 11:11:05;;;;;;;29.40;14.68;;;;;;;12.73;62.55;94331.34;5044627;28;20122;-49
2022/02/17 11:13:33;;;;;;;37.10;12.70;;;;;;;13.05;62.15;94325.13;5045702;28;20045;-48
2022/02/17 11:16:06;;;;;;;29.55;12.88;;;;;;;13.19;61.20;94331.44;5046484;28;20171;-49
2022/02/17 11:18:34;;;;;;;29.17;13.18;;;;;;;13.68;61.05;94321.56;5045858;28;20056;-47
2022/02/17 11:21:02;;;;;;;25.45;12.73;;;;;;;13.89;58.77;94317.91;5045994;28;20045;-48
2022/02/17 11:23:35;;;;;;;22.85;11.05;;;;;;;13.92;56.89;94316.59;5044988;28;20057;-49
2022/02/17 11:26:17;;;;;;;;;;;;;;;14.01;57.31;94303.72;5046372;28;20052;-47